Time;durP1;ratioP1;P1;durP2;ratioP2;P2;SDS_P1;SDS_P2;PMS_P1;PMS_P2;Temp;Humidity;BMP_temperature;BMP_pressure;BME280_temperature;BME280_humidity;BME280_pressure;Samples;Min_cycle;Max_cycle;Signal;HPM_P1;HPM_P2
2022/06/08 00:01:38;;;;;;;0.65;0.35;;;;;;;13.61;99.00;99384.72;6132113;23;19998;-75
2022/06/08 00:04:05;;;;;;;0.80;0.50;;;;;;;13.63;98.79;99387.16;6105566;23;20017;-76
2022/06/08 00:06:30;;;;;;;0.30;0.30;;;;;;;13.62;99.12;99380.81;6106444;23;20089;-76
2022/06/08 00:08:56;;;;;;;0.68;0.40;;;;;;;13.58;99.25;99366.91;6106142;23;20040;-76
2022/06/08 00:11:24;;;;;;;0.20;0.20;;;;;;;13.59;98.99;99368.56;6080583;23;20010;-75
2022/06/08 00:13:50;;;;;;;0.30;0.30;;;;;;;13.59;99.10;99368.56;6104862;23;20013;-75
2022/06/08 00:16:16;;;;;;;0.95;0.47;;;;;;;13.58;99.66;99363.34;6117641;23;20096;-73
2022/06/08 00:18:43;;;;;;;0.43;0.30;;;;;;;13.60;99.92;99367.41;6113062;23;20016;-72
2022/06/08 00:21:11;;;;;;;0.10;0.10;;;;;;;13.61;100.00;99360.00;6105288;23;20006;-75
2022/06/08 00:23:38;;;;;;;1.90;0.30;;;;;;;13.60;100.00;99350.13;6129743;23;20002;-75
2022/06/08 00:26:04;;;;;;;0.50;0.32;;;;;;;13.66;100.00;99354.34;6102914;23;20084;-75
2022/06/08 00:28:31;;;;;;;0.30;0.20;;;;;;;13.69;100.00;99347.44;6106452;23;20030;-75
2022/06/08 00:30:57;;;;;;;0.32;0.30;;;;;;;13.75;100.00;99346.97;6131960;23;20009;-75
2022/06/08 00:33:23;;;;;;;0.10;0.10;;;;;;;13.79;100.00;99338.94;6106249;23;20057;-75
2022/06/08 00:35:48;;;;;;;0.20;0.20;;;;;;;13.79;100.00;99327.94;6103563;23;20009;-74
2022/06/08 00:38:14;;;;;;;0.17;0.17;;;;;;;13.76;100.00;99312.88;6106049;23;20436;-75
2022/06/08 00:41:31;;;;;;;0.20;0.20;;;;;;;13.81;100.00;99305.66;6129542;23;20013;-74
2022/06/08 00:43:57;;;;;;;0.35;0.30;;;;;;;13.80;100.00;99291.09;6051350;23;20010;-75
2022/06/08 00:46:23;;;;;;;0.52;0.30;;;;;;;13.81;100.00;99289.16;6133042;23;20010;-76
2022/06/08 00:48:54;;;;;;;2.47;0.20;;;;;;;13.87;100.00;99287.88;6083377;23;20072;-76
2022/06/08 00:51:20;;;;;;;0.30;0.30;;;;;;;13.91;100.00;99283.38;6131792;23;20002;-75
2022/06/08 00:53:58;;;;;;;0.20;0.20;;;;;;;13.91;100.00;99288.88;6130489;23;20045;-75
2022/06/08 00:56:34;;;;;;;0.40;0.40;;;;;;;13.95;100.00;99295.38;6105536;23;20001;-75
2022/06/08 00:59:00;;;;;;;0.43;0.32;;;;;;;13.97;100.00;99287.63;6104334;23;20001;-76
2022/06/08 01:01:25;;;;;;;1.30;0.30;;;;;;;13.95;100.00;99279.69;6103737;23;20002;-75
2022/06/08 01:04:09;;;;;;;0.30;0.30;;;;;;;14.04;100.00;99271.47;6102193;23;20098;-75
2022/06/08 01:06:35;;;;;;;0.55;0.40;;;;;;;14.08;100.00;99266.97;6104586;23;20002;-76
2022/06/08 01:09:02;;;;;;;0.93;0.43;;;;;;;14.13;100.00;99269.59;6080048;23;20010;-75
2022/06/08 01:11:33;;;;;;;0.30;0.30;;;;;;;14.15;100.00;99269.28;6127973;23;20021;-74
2022/06/08 01:14:03;;;;;;;0.85;0.50;;;;;;;14.16;100.00;99267.31;6106097;23;20378;-75
2022/06/08 01:16:30;;;;;;;0.43;0.43;;;;;;;14.14;100.00;99264.91;6102520;23;20437;-73
2022/06/08 01:18:56;;;;;;;2.33;0.30;;;;;;;14.13;100.00;99261.34;6101795;23;20029;-75
2022/06/08 01:21:21;;;;;;;0.60;0.52;;;;;;;14.16;100.00;99261.81;6078240;23;20093;-73
2022/06/08 01:23:55;;;;;;;0.63;0.60;;;;;;;14.11;100.00;99249.03;6130948;23;20009;-76
2022/06/08 01:26:33;;;;;;;0.75;0.40;;;;;;;14.20;100.00;99246.31;6105066;23;20433;-75
2022/06/08 01:29:37;;;;;;;0.47;0.30;;;;;;;14.11;100.00;99197.63;6104244;23;20014;-76
2022/06/08 01:32:20;;;;;;;0.82;0.40;;;;;;;14.19;100.00;99253.75;6101727;23;20378;-76
2022/06/08 01:34:51;;;;;;;4.13;0.45;;;;;;;14.21;100.00;99247.94;6128417;23;20084;-76
2022/06/08 01:37:52;;;;;;;1.58;0.80;;;;;;;14.23;100.00;99240.19;6104460;23;20085;-75
2022/06/08 01:40:17;;;;;;;2.08;0.80;;;;;;;14.25;100.00;99248.91;6075648;23;20046;-74
2022/06/08 01:42:55;;;;;;;0.75;0.47;;;;;;;14.24;100.00;99236.31;6130623;23;20009;-76
2022/06/08 01:45:29;;;;;;;1.55;0.50;;;;;;;14.25;100.00;99232.41;6130432;23;20033;-77
2022/06/08 01:48:32;;;;;;;0.70;0.47;;;;;;;14.26;100.00;99229.34;6127879;23;20010;-77
2022/06/08 01:51:20;;;;;;;0.73;0.55;;;;;;;14.28;100.00;99226.28;6105524;23;20321;-76
2022/06/08 01:53:58;;;;;;;1.15;0.70;;;;;;;14.26;100.00;99229.34;6127809;23;20021;-75
2022/06/08 01:56:33;;;;;;;1.70;0.70;;;;;;;14.27;100.00;99230.16;6130243;23;20010;-74
2022/06/08 01:59:20;;;;;;;0.60;0.60;;;;;;;14.24;100.00;99217.06;6128309;23;20093;-75
2022/06/08 02:02:14;;;;;;;0.60;0.57;;;;;;;14.25;100.00;99221.41;6124426;23;20013;-73
2022/06/08 02:04:57;;;;;;;2.10;0.90;;;;;;;14.27;100.00;99219.16;6104379;23;20006;-74
2022/06/08 02:07:51;;;;;;;0.90;0.80;;;;;;;14.26;100.00;99220.28;6104529;23;20065;-76
2022/06/08 02:10:26;;;;;;;1.00;0.80;;;;;;;14.28;100.00;99231.78;6130302;23;19998;-75
2022/06/08 02:12:57;;;;;;;1.48;1.30;;;;;;;14.28;100.00;99234.53;6129801;23;20002;-75
2022/06/08 02:15:31;;;;;;;3.42;1.27;;;;;;;14.28;100.00;99226.28;6128334;23;20006;-74
2022/06/08 02:18:04;;;;;;;5.72;1.42;;;;;;;14.28;100.00;99226.28;6127582;23;20002;-74
2022/06/08 02:20:51;;;;;;;3.00;1.75;;;;;;;14.26;100.00;99223.03;6130660;23;20031;-74
2022/06/08 02:23:49;;;;;;;2.25;1.67;;;;;;;14.25;100.00;99227.75;6104212;23;20768;-74
2022/06/08 02:26:20;;;;;;;1.83;1.48;;;;;;;14.26;100.00;99234.03;6129307;23;20006;-74
2022/06/08 02:28:53;;;;;;;2.72;1.60;;;;;;;14.23;100.00;99212.69;6128742;23;20025;-76
2022/06/08 02:31:36;;;;;;;1.65;1.52;;;;;;;14.26;100.00;99223.03;6128303;23;20065;-74
2022/06/08 02:37:01;;;;;;;1.80;1.60;;;;;;;14.32;100.00;99228.09;6108497;23;20553;-75
2022/06/08 02:39:36;;;;;;;2.92;1.35;;;;;;;14.37;100.00;99215.28;6105277;23;20009;-75
2022/06/08 02:42:14;;;;;;;2.72;1.20;;;;;;;14.38;100.00;99220.47;6131171;23;20077;-75
2022/06/08 02:44:44;;;;;;;5.18;1.27;;;;;;;14.40;100.00;99214.66;6130786;23;20009;-75
2022/06/08 02:47:31;;;;;;;1.25;1.15;;;;;;;14.42;100.00;99213.19;6132204;23;20009;-75
2022/06/08 02:50:12;;;;;;;1.73;1.10;;;;;;;14.47;100.00;99221.31;6105512;23;20357;-75
2022/06/08 02:52:42;;;;;;;1.95;0.90;;;;;;;14.51;100.00;99212.41;6105844;23;20006;-76
2022/06/08 02:55:17;;;;;;;1.63;0.70;;;;;;;14.53;100.00;99215.63;6105746;23;20648;-75
2022/06/08 02:58:02;;;;;;;0.60;0.60;;;;;;;14.56;100.00;99215.81;6129622;23;20005;-74
2022/06/08 03:00:38;;;;;;;0.75;0.75;;;;;;;14.58;100.00;99218.25;6106054;23;20014;-75
2022/06/08 03:03:10;;;;;;;1.30;0.70;;;;;;;14.59;100.00;99217.13;6132271;23;20311;-75
2022/06/08 03:05:40;;;;;;;3.10;0.90;;;;;;;14.59;100.00;99219.88;6103049;23;20366;-74
2022/06/08 03:08:13;;;;;;;1.23;0.77;;;;;;;14.52;100.00;99211.28;6106843;23;20040;-74
2022/06/08 03:10:41;;;;;;;2.83;1.10;;;;;;;14.30;100.00;99210.28;6130534;23;20017;-75
2022/06/08 03:13:13;;;;;;;2.50;0.90;;;;;;;14.16;100.00;99202.16;6130934;23;20065;-75
2022/06/08 03:15:41;;;;;;;2.80;1.10;;;;;;;14.02;100.00;99202.28;6131345;23;20013;-75
2022/06/08 03:18:07;;;;;;;4.60;1.00;;;;;;;13.93;100.00;99204.19;6126196;23;20061;-75
2022/06/08 03:20:33;;;;;;;2.50;0.93;;;;;;;13.78;100.00;99198.00;6129849;23;20010;-74
2022/06/08 03:22:59;;;;;;;3.17;1.08;;;;;;;13.67;100.00;99202.16;6102841;23;20006;-74
2022/06/08 03:25:25;;;;;;;4.15;0.88;;;;;;;13.56;100.00;99196.13;6104314;23;20321;-75
2022/06/08 03:27:51;;;;;;;3.80;0.90;;;;;;;13.46;100.00;99201.06;6104262;23;20014;-76
2022/06/08 03:30:18;;;;;;;5.43;1.33;;;;;;;13.33;99.74;99203.56;6127940;23;20084;-74
2022/06/08 03:32:43;;;;;;;7.00;1.20;;;;;;;13.19;99.97;99203.63;6131073;23;20013;-76
2022/06/08 03:35:10;;;;;;;5.05;1.45;;;;;;;13.15;100.00;99208.13;6127850;23;20002;-76
2022/06/08 03:37:35;;;;;;;4.93;1.30;;;;;;;13.08;100.00;99219.56;6130374;23;20034;-75
2022/06/08 03:40:01;;;;;;;4.90;1.17;;;;;;;12.98;100.00;99205.25;6128080;23;20014;-76
2022/06/08 03:42:26;;;;;;;4.95;1.33;;;;;;;12.88;100.00;99195.38;6128324;23;20014;-75
2022/06/08 03:44:52;;;;;;;6.93;1.55;;;;;;;12.80;100.00;99191.41;6056556;23;20017;-73
2022/06/08 03:47:24;;;;;;;3.70;0.90;;;;;;;12.78;100.00;99192.88;6103289;23;20048;-74
2022/06/08 03:49:52;;;;;;;7.70;1.42;;;;;;;12.68;100.00;99189.22;6131555;23;20006;-77
2022/06/08 03:52:22;;;;;;;2.35;0.90;;;;;;;12.67;100.00;99204.06;6128239;23;20013;-75
2022/06/08 03:54:53;;;;;;;2.50;1.08;;;;;;;12.65;100.00;99194.53;6106314;23;20005;-75
2022/06/08 03:57:19;;;;;;;9.15;1.00;;;;;;;12.64;99.85;99201.94;6102696;23;20017;-76
2022/06/08 03:59:48;;;;;;;2.80;1.10;;;;;;;12.55;100.00;99206.53;6131621;23;20012;-76
2022/06/08 04:02:13;;;;;;;3.80;1.13;;;;;;;12.54;100.00;99210.41;6131076;23;20037;-75
2022/06/08 04:04:39;;;;;;;8.27;1.10;;;;;;;12.47;99.98;99210.84;6080346;23;20022;-76
2022/06/08 04:07:06;;;;;;;5.15;1.67;;;;;;;12.47;100.00;99215.50;6129028;23;20002;-74
2022/06/08 04:09:31;;;;;;;6.20;1.33;;;;;;;12.46;100.00;99219.38;6099001;23;20100;-75
2022/06/08 04:11:57;;;;;;;7.18;1.30;;;;;;;12.47;100.00;99221.81;6125342;23;19998;-75
2022/06/08 04:14:22;;;;;;;4.30;1.00;;;;;;;12.46;100.00;99222.13;6098952;23;20044;-76
2022/06/08 04:16:48;;;;;;;5.10;1.17;;;;;;;12.47;100.00;99226.44;6103372;23;20005;-76
2022/06/08 04:19:14;;;;;;;4.47;0.90;;;;;;;12.43;99.99;99220.00;6127126;23;20010;-75
2022/06/08 04:21:41;;;;;;;5.55;1.15;;;;;;;12.48;100.00;99223.41;6078460;23;20006;-73
2022/06/08 04:24:10;;;;;;;5.85;1.23;;;;;;;12.48;100.00;99225.34;6103019;23;20005;-75
2022/06/08 04:26:36;;;;;;;8.60;1.10;;;;;;;12.53;100.00;99230.72;6128391;23;20021;-74
2022/06/08 04:29:03;;;;;;;7.15;1.70;;;;;;;12.52;100.00;99235.38;6102582;23;20013;-74
2022/06/08 04:31:32;;;;;;;6.40;1.45;;;;;;;12.50;99.80;99232.16;6125422;23;20046;-74
2022/06/08 04:33:58;;;;;;;6.05;1.23;;;;;;;12.46;99.20;99235.81;6127380;23;20010;-75
2022/06/08 04:36:24;;;;;;;3.92;1.40;;;;;;;12.43;99.59;99228.22;6078599;23;20063;-75
2022/06/08 04:38:49;;;;;;;3.58;0.90;;;;;;;12.38;99.45;99234.59;6099981;23;20010;-75
2022/06/08 04:41:16;;;;;;;9.00;1.50;;;;;;;12.37;99.10;99236.53;6076524;23;20038;-76
2022/06/08 04:43:41;;;;;;;3.70;1.10;;;;;;;12.38;98.77;99229.13;6076227;23;20013;-76
2022/06/08 04:46:07;;;;;;;6.43;1.30;;;;;;;12.35;98.41;99219.59;6079510;23;20326;-75
2022/06/08 04:48:33;;;;;;;7.63;1.70;;;;;;;12.34;97.84;99223.44;6128861;23;20002;-75
2022/06/08 04:50:58;;;;;;;7.95;1.67;;;;;;;12.37;96.93;99224.78;6102663;23;20033;-75
2022/06/08 04:53:29;;;;;;;10.55;1.88;;;;;;;12.35;97.03;99230.56;6127897;23;20009;-75
2022/06/08 04:55:57;;;;;;;6.97;1.42;;;;;;;12.29;97.35;99226.28;6101927;23;20006;-75
2022/06/08 04:58:26;;;;;;;10.35;1.48;;;;;;;12.31;97.57;99221.31;6125482;23;20021;-76
2022/06/08 05:00:52;;;;;;;10.73;1.42;;;;;;;12.35;97.20;99236.03;6101891;23;20369;-74
2022/06/08 05:03:17;;;;;;;7.05;0.90;;;;;;;12.38;96.87;99235.44;6101753;23;20020;-74
2022/06/08 05:05:43;;;;;;;5.85;1.08;;;;;;;12.39;96.87;99236.22;6075545;23;20017;-74
2022/06/08 05:08:09;;;;;;;5.65;1.30;;;;;;;12.47;96.86;99237.41;6101081;23;20061;-74
2022/06/08 05:10:35;;;;;;;8.07;1.65;;;;;;;12.54;96.11;99240.56;6128143;23;20009;-75
2022/06/08 05:13:01;;;;;;;5.15;1.58;;;;;;;12.59;95.22;99240.47;6123228;23;20021;-75
2022/06/08 05:15:30;;;;;;;7.50;1.33;;;;;;;12.62;95.08;99234.34;6102323;23;20006;-75
2022/06/08 05:17:57;;;;;;;7.78;1.63;;;;;;;12.66;94.84;99238.09;6098847;23;20038;-74
2022/06/08 05:20:23;;;;;;;8.43;1.45;;;;;;;12.70;94.24;99235.53;6101981;23;20329;-75
2022/06/08 05:22:49;;;;;;;7.60;1.02;;;;;;;12.80;94.14;99240.00;6125646;23;20010;-75
2022/06/08 05:25:22;;;;;;;9.98;1.00;;;;;;;12.87;93.81;99241.19;6103705;23;20353;-75
2022/06/08 05:27:47;;;;;;;8.77;1.48;;;;;;;12.97;93.42;99236.59;6128345;23;20010;-76
2022/06/08 05:30:13;;;;;;;5.78;1.38;;;;;;;13.10;92.03;99239.25;6125626;23;20049;-75
2022/06/08 05:32:39;;;;;;;8.98;1.30;;;;;;;13.22;92.01;99240.63;6130334;23;20061;-74
2022/06/08 05:35:05;;;;;;;6.25;1.52;;;;;;;13.39;90.81;99246.28;6103697;23;20002;-75
2022/06/08 05:37:31;;;;;;;3.47;0.98;;;;;;;13.59;89.78;99241.38;6129058;23;20030;-74
2022/06/08 05:40:28;;;;;;;7.05;1.10;;;;;;;13.84;88.35;99247.31;6078453;23;20010;-75
2022/06/08 05:42:54;;;;;;;6.63;1.17;;;;;;;13.86;87.30;99248.63;6068928;23;20429;-75
2022/06/08 05:45:24;;;;;;;13.35;1.30;;;;;;;13.81;87.42;99240.50;6123799;23;20037;-75
2022/06/08 05:47:50;;;;;;;7.13;1.42;;;;;;;13.77;88.32;99229.34;6075609;23;20002;-75
2022/06/08 05:50:19;;;;;;;9.10;1.30;;;;;;;13.90;87.92;99246.03;6103996;23;20009;-75
2022/06/08 05:53:28;;;;;;;6.35;1.13;;;;;;;13.91;88.10;99250.41;6129273;23;20496;-75
2022/06/08 05:56:20;;;;;;;7.38;1.63;;;;;;;14.03;88.59;99245.16;6056016;23;20006;-75
2022/06/08 05:58:46;;;;;;;6.20;0.98;;;;;;;14.14;88.31;99249.19;6132056;23;20006;-75
2022/06/08 06:01:11;;;;;;;6.85;1.02;;;;;;;14.14;87.42;99238.19;6128095;23;20006;-76
2022/06/08 06:03:37;;;;;;;8.32;1.05;;;;;;;14.22;87.32;99227.56;6055408;23;20014;-76
2022/06/08 06:06:03;;;;;;;6.43;1.02;;;;;;;14.34;86.78;99241.50;6128953;23;20084;-74
2022/06/08 06:08:28;;;;;;;5.95;1.10;;;;;;;14.35;86.20;99232.09;6053654;23;20021;-74
2022/06/08 06:10:54;;;;;;;2.50;0.65;;;;;;;14.44;86.04;99246.72;6129266;23;20010;-74
2022/06/08 06:13:20;;;;;;;3.80;1.20;;;;;;;14.45;86.00;99247.50;6128712;23;20322;-75
2022/06/08 06:15:46;;;;;;;5.40;1.20;;;;;;;14.41;85.44;99250.09;6129505;23;20025;-75
2022/06/08 06:18:11;;;;;;;8.43;1.10;;;;;;;14.36;86.67;99243.94;6129131;23;20002;-76
2022/06/08 06:20:38;;;;;;;10.95;0.80;;;;;;;14.34;86.20;99236.00;6052661;23;20060;-75
2022/06/08 06:23:04;;;;;;;5.93;0.95;;;;;;;14.28;85.96;99245.50;6129558;23;20013;-75
2022/06/08 06:25:29;;;;;;;6.70;1.17;;;;;;;14.17;86.20;99246.97;6075447;23;20021;-75
2022/06/08 06:27:55;;;;;;;5.80;1.58;;;;;;;14.11;86.57;99244.34;6081561;23;20020;-77
2022/06/08 06:30:21;;;;;;;3.55;0.88;;;;;;;14.05;86.15;99256.63;6102576;23;20558;-75
2022/06/08 06:32:47;;;;;;;7.80;1.95;;;;;;;14.03;86.58;99253.38;6080159;23;20002;-73
2022/06/08 06:35:25;;;;;;;7.50;1.15;;;;;;;14.13;85.42;99258.59;6099066;23;20033;-73
2022/06/08 06:37:52;;;;;;;6.55;1.00;;;;;;;14.22;85.35;99268.78;6102758;23;20013;-73
2022/06/08 06:40:18;;;;;;;4.43;1.15;;;;;;;14.25;84.99;99260.72;6124225;23;20010;-73
2022/06/08 06:42:46;;;;;;;5.43;0.98;;;;;;;14.31;85.21;99258.66;6079293;23;20061;-75
2022/06/08 06:45:14;;;;;;;6.90;0.80;;;;;;;14.52;85.43;99255.28;6078542;23;20006;-76
2022/06/08 06:47:39;;;;;;;6.68;0.95;;;;;;;14.66;83.33;99253.25;6077618;23;20120;-76
2022/06/08 06:50:08;;;;;;;7.55;1.13;;;;;;;14.89;82.34;99277.88;6126989;23;20056;-78
2022/06/08 06:52:39;;;;;;;1.90;0.80;;;;;;;15.02;81.21;99268.63;6127430;23;19998;-76
2022/06/08 06:55:05;;;;;;;3.28;0.90;;;;;;;15.13;79.78;99266.38;6103999;23;20671;-77
2022/06/08 06:57:31;;;;;;;6.63;1.10;;;;;;;15.03;79.87;99264.75;6128567;23;20012;-75
2022/06/08 06:59:56;;;;;;;7.30;1.17;;;;;;;14.90;79.23;99262.97;6104663;23;20317;-77
2022/06/08 07:02:22;;;;;;;7.53;1.20;;;;;;;14.94;79.80;99275.75;6102369;23;20093;-77
2022/06/08 07:04:49;;;;;;;7.60;1.15;;;;;;;15.00;79.09;99279.16;6128296;23;20060;-78
2022/06/08 07:07:15;;;;;;;9.65;1.30;;;;;;;15.24;78.44;99280.63;6079351;23;20425;-76
2022/06/08 07:09:54;;;;;;;8.50;1.35;;;;;;;15.41;76.73;99302.63;6105357;23;20010;-77
2022/06/08 07:12:23;;;;;;;5.47;0.98;;;;;;;15.47;76.19;99286.75;6076023;23;20038;-76
2022/06/08 07:39:14;;;;;;;8.88;0.90;;;;;;;17.09;69.25;99293.34;5902450;24;20043;-76
2022/06/08 07:41:50;;;;;;;7.72;0.80;;;;;;;17.34;66.77;99293.47;5935486;23;20019;-78
2022/06/08 07:44:17;;;;;;;3.60;0.80;;;;;;;17.45;66.39;99300.19;6053607;23;20007;-76
2022/06/08 07:46:46;;;;;;;1.83;0.57;;;;;;;17.18;67.11;99291.31;6075685;23;20429;-76
2022/06/08 07:52:05;;;;;;;4.38;1.02;;;;;;;17.23;67.16;99310.44;6080051;23;20329;-77
2022/06/08 07:54:32;;;;;;;2.00;0.60;;;;;;;17.14;66.40;99306.94;6099350;23;20013;-77
2022/06/08 07:57:04;;;;;;;3.75;0.93;;;;;;;17.35;67.63;99325.47;6100715;23;20078;-75
2022/06/08 07:59:38;;;;;;;1.88;0.60;;;;;;;17.59;66.86;99320.03;6070978;23;20057;-77
2022/06/08 08:02:05;;;;;;;;;;;;;;;18.25;64.80;99334.97;6100987;23;20006;-78
2022/06/08 08:04:30;;;;;;;4.32;1.10;;;;;;;18.29;63.70;99321.25;6067338;23;19912;-78
2022/06/08 08:06:56;;;;;;;8.63;1.60;;;;;;;18.33;63.81;99333.25;6096853;23;20081;-76
2022/06/08 08:09:31;;;;;;;5.20;0.80;;;;;;;18.07;64.47;99314.19;6072895;23;20018;-77
2022/06/08 08:12:29;;;;;;;4.38;0.73;;;;;;;18.10;64.31;99321.81;6098789;23;20010;-77
2022/06/08 08:15:00;;;;;;;6.22;1.08;;;;;;;17.74;64.62;99309.47;6049365;23;20468;-78
2022/06/08 08:17:30;;;;;;;4.57;0.93;;;;;;;17.38;65.93;99330.31;6090506;23;20319;-76
2022/06/08 08:19:55;;;;;;;7.53;0.65;;;;;;;17.21;67.37;99345.06;6094828;23;20014;-74
2022/06/08 08:22:21;;;;;;;5.95;0.80;;;;;;;17.31;66.02;99349.41;6073855;23;20460;-73
2022/06/08 08:24:47;;;;;;;3.00;0.57;;;;;;;17.35;65.45;99350.34;6049263;23;20031;-74
2022/06/08 08:27:13;;;;;;;2.47;0.50;;;;;;;17.97;64.11;99348.63;6098162;23;20007;-72
2022/06/08 08:29:39;;;;;;;3.60;0.80;;;;;;;18.29;62.17;99352.47;6096156;23;20007;-74
2022/06/08 08:32:07;;;;;;;5.20;0.75;;;;;;;18.25;62.38;99348.81;6073765;23;19999;-73
2022/06/08 08:34:33;;;;;;;2.80;0.47;;;;;;;18.22;61.39;99345.91;6119444;23;20014;-74
2022/06/08 08:36:58;;;;;;;3.95;0.68;;;;;;;17.93;62.36;99339.38;6101444;23;20048;-74
2022/06/08 08:39:24;;;;;;;2.45;0.60;;;;;;;17.70;63.31;99347.25;6126751;23;20036;-73
2022/06/08 08:44:36;;;;;;;1.83;0.40;;;;;;;17.24;66.28;99339.69;6127566;23;20021;-72
2022/06/08 08:47:20;;;;;;;4.80;0.60;;;;;;;17.41;67.34;99341.50;6123524;23;20056;-74
2022/06/08 08:49:55;;;;;;;3.35;0.68;;;;;;;17.63;63.66;99340.31;6100160;23;20001;-73
2022/06/08 08:52:49;;;;;;;5.18;0.60;;;;;;;18.35;62.60;99341.19;6124759;23;20005;-73
2022/06/08 08:55:48;;;;;;;2.50;0.47;;;;;;;19.24;58.28;99345.97;6136166;23;20006;-73
2022/06/08 08:58:16;;;;;;;2.70;0.55;;;;;;;19.41;58.12;99353.22;6132972;23;20377;-72
2022/06/08 09:01:11;;;;;;;2.78;0.65;;;;;;;19.15;57.14;99357.19;6128854;23;20010;-72
2022/06/08 09:03:43;;;;;;;1.70;0.43;;;;;;;18.65;58.84;99350.91;6128437;23;20040;-73
2022/06/08 09:06:14;;;;;;;4.90;0.50;;;;;;;18.19;59.29;99357.66;6126037;23;20002;-74
2022/06/08 09:08:43;;;;;;;5.05;0.95;;;;;;;17.80;61.28;99364.22;6127942;23;20113;-73
2022/06/08 09:11:29;;;;;;;4.82;0.70;;;;;;;17.43;63.34;99358.56;6122784;23;20009;-72
2022/06/08 09:14:14;;;;;;;4.32;1.52;;;;;;;17.04;69.96;99368.91;6101281;23;20012;-74
2022/06/08 09:16:43;;;;;;;2.88;0.70;;;;;;;16.44;75.29;99367.25;6125146;23;20044;-74
2022/06/08 09:19:20;;;;;;;2.97;0.40;;;;;;;15.71;78.53;99382.66;6126503;23;20002;-75
2022/06/08 09:21:47;;;;;;;1.45;0.50;;;;;;;15.11;82.08;99367.75;6124594;23;20033;-74
2022/06/08 09:24:27;;;;;;;4.10;0.80;;;;;;;14.81;85.53;99382.09;6103989;23;20026;-75
2022/06/08 09:27:05;;;;;;;5.03;0.90;;;;;;;14.75;87.95;99385.34;6101505;23;20033;-75
2022/06/08 09:29:30;;;;;;;1.80;0.45;;;;;;;14.89;88.39;99371.44;6127834;23;20009;-74
2022/06/08 09:31:56;;;;;;;2.22;0.93;;;;;;;15.34;88.20;99376.69;6101371;23;20013;-74
2022/06/08 09:34:27;;;;;;;3.72;1.25;;;;;;;15.95;86.09;99384.13;6056461;23;20265;-75
2022/06/08 09:37:20;;;;;;;5.93;0.98;;;;;;;16.63;82.99;99380.66;6073187;23;20006;-73
2022/06/08 09:39:47;;;;;;;6.85;0.93;;;;;;;17.30;79.28;99376.19;6098141;23;20073;-75
2022/06/08 09:42:41;;;;;;;5.88;0.60;;;;;;;17.60;76.53;99387.97;6099358;23;20002;-75
2022/06/08 09:45:48;;;;;;;4.93;0.82;;;;;;;17.78;71.78;99385.06;6103273;23;20424;-75
2022/06/08 09:51:47;;;;;;;1.73;0.70;;;;;;;18.28;70.04;99388.78;6100244;23;20428;-74
2022/06/08 09:54:36;;;;;;;2.58;0.70;;;;;;;18.21;68.18;99397.69;6073662;23;19990;-75
2022/06/08 09:57:39;;;;;;;3.60;1.10;;;;;;;18.20;69.67;99396.06;6100793;23;20002;-74
2022/06/08 10:00:20;;;;;;;3.88;0.80;;;;;;;18.54;64.95;99388.50;6103222;23;20002;-74
2022/06/08 10:02:51;;;;;;;3.38;1.00;;;;;;;18.39;65.78;99397.47;6073999;23;19998;-75
2022/06/08 10:05:39;;;;;;;2.42;1.15;;;;;;;18.15;68.23;99396.28;6103530;23;20002;-75
2022/06/08 10:08:38;;;;;;;7.07;1.02;;;;;;;18.16;66.60;99402.63;6076867;23;20010;-75
2022/06/08 10:11:40;;;;;;;4.32;0.63;;;;;;;18.16;66.31;99403.41;6102533;23;19998;-75
2022/06/08 10:14:19;;;;;;;1.77;0.60;;;;;;;18.01;66.48;99381.97;6104040;23;20002;-75
2022/06/08 10:16:53;;;;;;;1.83;0.70;;;;;;;17.88;66.94;99390.16;6076463;23;20026;-74
2022/06/08 10:19:42;;;;;;;4.93;0.77;;;;;;;17.85;68.07;99390.06;6104709;23;20013;-73
2022/06/08 10:22:10;;;;;;;3.95;0.80;;;;;;;17.95;65.73;99390.47;6051833;23;20088;-73
2022/06/08 10:24:53;;;;;;;2.30;0.60;;;;;;;17.93;66.12;99386.41;6076397;23;20014;-74
2022/06/08 10:27:26;;;;;;;2.85;0.50;;;;;;;18.21;62.34;99397.69;6102643;23;20087;-75
2022/06/08 10:30:18;;;;;;;5.97;0.60;;;;;;;18.47;62.74;99399.31;6097105;23;21075;-73
2022/06/08 10:33:05;;;;;;;5.22;0.70;;;;;;;19.01;63.69;99398.31;6101815;23;20006;-74
2022/06/08 10:35:41;;;;;;;4.43;0.77;;;;;;;19.97;59.21;99396.78;6132189;23;20009;-75
2022/06/08 10:38:32;;;;;;;5.80;0.80;;;;;;;21.20;56.29;99391.53;6128239;23;20326;-75
2022/06/08 10:43:55;;;;;;;3.13;0.73;;;;;;;22.66;47.15;99395.59;6129323;23;20392;-75
2022/06/08 10:46:52;;;;;;;2.90;0.63;;;;;;;22.58;45.99;99398.66;6108136;23;20425;-74
2022/06/08 10:49:32;;;;;;;4.68;0.60;;;;;;;22.21;46.41;99407.50;6129912;23;20009;-73
2022/06/08 10:52:20;;;;;;;4.00;0.82;;;;;;;21.93;47.22;99408.56;6131952;23;20006;-73
2022/06/08 10:54:53;;;;;;;3.42;0.73;;;;;;;21.62;47.50;99402.00;6131915;23;20060;-74
2022/06/08 10:57:31;;;;;;;3.72;0.65;;;;;;;20.85;48.11;99412.59;6103658;23;20017;-74
2022/06/08 11:00:18;;;;;;;6.45;0.70;;;;;;;20.31;50.67;99405.66;6131472;23;20318;-74
2022/06/08 11:03:05;;;;;;;7.53;0.95;;;;;;;21.60;50.22;99410.69;6129286;23;20006;-76
2022/06/08 11:05:30;;;;;;;7.18;0.73;;;;;;;22.88;46.55;99412.69;6132518;23;20013;-76
2022/06/08 11:07:59;;;;;;;5.22;0.90;;;;;;;25.33;42.99;99428.59;6131368;23;20066;-75
2022/06/08 11:10:51;;;;;;;1.92;0.77;;;;;;;26.99;37.37;99422.25;6130738;23;20010;-73
2022/06/08 11:13:28;;;;;;;2.60;0.57;;;;;;;29.16;33.85;99421.13;6129659;23;19998;-77
2022/06/08 11:16:52;;;;;;;2.25;0.90;;;;;;;31.82;26.62;99414.31;6098679;23;20016;-77
2022/06/08 11:19:18;;;;;;;2.72;0.57;;;;;;;31.80;26.03;99408.28;5985322;24;20146;-78
2022/06/08 11:22:02;;;;;;;2.30;0.60;;;;;;;33.44;25.22;99435.13;6076661;23;20006;-77
2022/06/08 11:24:48;;;;;;;3.72;1.00;;;;;;;33.66;24.60;99409.00;6105628;23;20065;-78
2022/06/08 11:27:33;;;;;;;;;;;;;;;;;;;;;
2022/06/08 11:30:35;;;;;;;;;;;;;;;;;;;;;
2022/06/08 11:33:20;;;;;;;2.70;0.50;;;;;;;32.57;24.69;99441.38;6121920;23;20021;-78
2022/06/08 11:39:15;;;;;;;5.85;0.77;;;;;;;35.44;21.91;99434.13;6128378;23;20017;-77
2022/06/08 11:41:51;;;;;;;;;;;;;;;;;;;;;
2022/06/08 11:44:30;;;;;;;5.13;0.57;;;;;;;32.44;23.79;99433.56;6131442;23;20382;-77
2022/06/08 11:47:31;;;;;;;1.55;0.52;;;;;;;33.66;23.70;99445.84;6131544;23;20036;-76
2022/06/08 11:50:39;;;;;;;5.45;0.50;;;;;;;35.77;21.05;99448.75;6072829;23;20013;-76
2022/06/08 11:53:28;;;;;;;5.97;0.70;;;;;;;31.65;24.85;99429.63;6129250;23;20006;-78
2022/06/08 11:56:48;;;;;;;4.78;0.47;;;;;;;34.41;23.48;99437.97;6095912;23;20006;-75
2022/06/08 11:59:23;;;;;;;4.03;0.63;;;;;;;36.97;19.00;99457.09;6017560;23;20018;-77
2022/06/08 12:02:23;;;;;;;;;;;;;;;;;;;;;
2022/06/08 12:04:54;;;;;;;1.90;0.60;;;;;;;32.13;23.83;99436.69;6130682;23;20014;-78
2022/06/08 12:08:07;;;;;;;;;;;;;;;;;;;;;
2022/06/08 12:10:54;;;;;;;3.78;0.60;;;;;;;30.74;25.38;99433.25;6133055;23;20017;-80
2022/06/08 12:13:26;;;;;;;4.70;0.70;;;;;;;31.50;25.09;99423.44;6132225;23;20006;-76
2022/06/08 12:16:13;;;;;;;;;;;;;;;;;;;;;
2022/06/08 12:18:47;;;;;;;8.15;0.90;;;;;;;26.71;30.82;99458.69;6134311;23;20021;-79
2022/06/08 12:21:38;;;;;;;3.95;0.70;;;;;;;27.60;30.70;99442.97;6132720;23;20002;-78
2022/06/08 12:24:28;;;;;;;3.92;0.70;;;;;;;26.90;32.48;99421.06;6106620;23;20006;-79
2022/06/08 12:27:37;;;;;;;2.72;0.68;;;;;;;28.52;30.38;99443.75;6091826;23;20006;-77
2022/06/08 12:30:32;;;;;;;;;;;;;;;;;;;;;
2022/06/08 12:33:20;;;;;;;9.75;1.15;;;;;;;28.16;30.12;99460.03;6129568;23;20025;-78
2022/06/08 12:36:20;;;;;;;;;;;;;;;;;;;;;
2022/06/08 12:39:00;;;;;;;6.78;0.93;;;;;;;25.35;36.03;99456.97;6132598;23;20033;-77
2022/06/08 12:41:43;;;;;;;3.20;0.82;;;;;;;25.66;36.63;99457.56;6132787;23;20018;-76
2022/06/08 12:44:36;;;;;;;4.18;0.75;;;;;;;25.49;35.57;99437.47;6106311;23;20341;-78
2022/06/08 12:47:28;;;;;;;;;;;;;;;;;;;;;
2022/06/08 12:50:24;;;;;;;6.35;1.02;;;;;;;24.56;37.25;99440.31;6132131;23;20028;-78
2022/06/08 12:52:57;;;;;;;3.17;1.08;;;;;;;23.44;41.09;99438.22;6104814;23;20006;-79
2022/06/08 12:55:42;;;;;;;2.35;0.73;;;;;;;22.52;42.58;99433.56;6107317;23;20328;-80
2022/06/08 12:58:25;;;;;;;3.90;0.77;;;;;;;21.90;44.30;99449.09;6106215;23;20006;-80
2022/06/08 13:00:53;;;;;;;3.17;0.82;;;;;;;21.29;43.69;99442.19;6103144;23;20009;-75